Flight Track Log - Related Links

Times and Time Zones

All times are in EDT time to prevent confusion due to time zone crossing. See the QXE2594 flight status page for this flight to view local times or setup timezone preferences in your user account.


Time Position Orientation Groundspeed Altitude Reporting Facility
EDT Latitude Longitude Course Direction KTS MPH feet Rate Location/Type
Wed 04:38:00 PM 47.5500 -121.6348 90° East  Level FlightAware Approximate
Wed 04:39:00 PM 47.5500 -121.5185 90° East  Level FlightAware Approximate
Wed 04:40:00 PM 47.5500 -121.4023 90° East  Level FlightAware Approximate
Wed 04:41:00 PM 47.5500 -121.2861 90° East  Level FlightAware Approximate
Wed 04:42:00 PM 47.5500 -121.1698 90° East  Level FlightAware Approximate
Wed 04:43:00 PM 47.5500 -121.0536 90° East  Level FlightAware Approximate
Wed 04:44:00 PM 47.5488 -120.9374 92° East  Level FlightAware Approximate
Wed 04:45:00 PM 47.5455 -120.8213 92° East  Level FlightAware Approximate
Wed 04:46:00 PM 47.5422 -120.7052 92° East  Level FlightAware Approximate
Wed 04:47:00 PM 47.5387 -120.5891 92° East  Level FlightAware Approximate
Wed 04:48:00 PM 47.5351 -120.4730 93° East  Level FlightAware Approximate
Wed 04:49:00 PM 47.5303 -120.3570 94° East  Level FlightAware Approximate
Wed 04:50:00 PM 47.5242 -120.2412 94° East  Level FlightAware Approximate
Wed 04:51:00 PM 47.5180 -120.1254 94° East  Level FlightAware Approximate
Wed 04:52:00 PM 47.5122 -120.0095 94° East  Level FlightAware Approximate
Wed 04:53:00 PM 47.5063 -119.8937 94° East  Level FlightAware Approximate
Wed 04:54:00 PM 47.5003 -119.7779 94° East  Level FlightAware Approximate
Wed 04:55:00 PM 47.4942 -119.6622 94° East  Level FlightAware Approximate
Wed 04:56:00 PM 47.4879 -119.5464 95° East  Level FlightAware Approximate
Wed 04:57:00 PM 47.4816 -119.4307 95° East  Level FlightAware Approximate
Wed 04:58:00 PM 47.4751 -119.3150 95° East  Level FlightAware Approximate
Wed 04:59:00 PM 47.4686 -119.1994 95° East  Level FlightAware Approximate
Wed 05:00:00 PM 47.4604 -119.0840 96° East  Level FlightAware Approximate
Wed 05:01:00 PM 47.4515 -118.9687 96° East  Level FlightAware Approximate
Wed 05:02:00 PM 47.4444 -118.8532 95° East  Level FlightAware Approximate
Wed 05:03:00 PM 47.4376 -118.7376 95° East  Level FlightAware Approximate
Wed 05:04:00 PM 47.4333 -118.6219 90° East  Level FlightAware Approximate
Wed 05:05:00 PM 47.4325 -118.5060 96° East  Level FlightAware Approximate
Wed 05:06:00 PM 47.4237 -118.3908 96° East  Level FlightAware Approximate
Wed 05:07:00 PM 47.4167 -118.2754 90° East  Level FlightAware Approximate
Wed 05:08:00 PM 47.4394 -118.1649 72° East  Level FlightAware Approximate
Wed 05:09:00 PM 47.4639 -118.0546 72° East  Level FlightAware Approximate
Wed 05:10:00 PM 47.4904 -117.9456 64° Northeast  Level FlightAware Approximate
Wed 05:11:00 PM 47.5197 -117.8380 70° East  Level FlightAware Approximate
Wed 05:12:00 PM 47.5506 -117.7314 67° East  Level FlightAware Approximate
Wed 05:13:00 PM 47.5812 -117.6243 67° East  Level FlightAware Approximate
Wed 05:14:00 PM 47.6167 -117.5333 59° Northeast  Level FlightAware Approximate
Wed 05:15:00 PM 47.6190 -117.5352 59° Northeast  Level Estimated
Wed 05:16:00 PM 47.6167 -117.5333 59° Northeast  Level FlightAware Approximate
Wed 05:17:00 PM 47.6190 -117.5352 59° Northeast  Level Estimated
Wed 05:18:00 PM 47.6167 -117.5333 59° Northeast  Level FlightAware Approximate
Wed 05:19:00 PM 47.6190 -117.5352 59° Northeast  Level Estimated
Wed 05:20:00 PM 47.6167 -117.5333 59° Northeast  Level FlightAware Approximate
Wed 05:21:00 PM 47.6190 -117.5352 59° Northeast  Level Estimated
Wed 05:22:00 PM 47.6167 -117.5333 59° Northeast  Level FlightAware Approximate
Wed 05:23:00 PM 47.6190 -117.5352 59° Northeast  Level Estimated
Wed 05:24:00 PM 47.6167 -117.5333 59° Northeast  Level FlightAware Approximate
Wed 05:25:00 PM 47.6190 -117.5352 59° Northeast  Level Estimated
Wed 05:26:00 PM 47.6167 -117.5333 59° Northeast  Level FlightAware Approximate
Wed 05:27:00 PM 47.6190 -117.5352 59° Northeast  Level Estimated
Wed 05:28:00 PM 47.6167 -117.5333 59° Northeast  Level FlightAware Approximate
Wed 05:29:00 PM 47.6190 -117.5352 59° Northeast  Level Estimated

Login

Don't have an account? Register now (free) for customized features, flight alerts, and more!